In Rescue
 
Open Full Screen Window  High Contrast Mode
Wind Gusting 00 knots
07
July 25, 2021 6:52 AM CDT
Weather Information
Wind Direction
  220 °
Wind Speed
  07 kt (8 mph)
Wind Gust
  00 kt (0 mph)
Altimeter
30.04 in
Visibility
10 SM
Temperature
20° C
68° F
Dewpoint
15° C
59° F
Humidity
73%
1hr Rain Fall
00.00 in.
24hr Rain Fall
00.00 in.
Sky Condition
Clear
VFR

METAR KTKC 251152Z AUTO 22007KT 10SM CLR 20/15 A3004 RMK AO2 T01980153

FAA Disclaimer: The data displayed is for advisory purposes only and is not to be used for flight planning or operations.